sensor_id;sensor_type;location;lat;lon;timestamp;P1;durP1;ratioP1;P2;durP2;ratioP2
12469;SDS011;36499;46.484;13.832;2023-07-31T00:01:21;3.50;;;1.60;;
12469;SDS011;36499;46.484;13.832;2023-07-31T00:03:48;1.53;;;1.43;;
12469;SDS011;36499;46.484;13.832;2023-07-31T00:06:15;1.90;;;1.80;;
12469;SDS011;36499;46.484;13.832;2023-07-31T00:08:42;1.70;;;1.60;;
12469;SDS011;36499;46.484;13.832;2023-07-31T00:11:09;3.30;;;1.60;;
12469;SDS011;36499;46.484;13.832;2023-07-31T00:13:36;3.73;;;1.83;;
12469;SDS011;36499;46.484;13.832;2023-07-31T00:16:05;3.73;;;1.60;;
12469;SDS011;36499;46.484;13.832;2023-07-31T00:18:32;1.87;;;1.57;;
12469;SDS011;36499;46.484;13.832;2023-07-31T00:20:59;1.60;;;1.33;;
12469;SDS011;36499;46.484;13.832;2023-07-31T00:23:26;3.60;;;1.70;;
12469;SDS011;36499;46.484;13.832;2023-07-31T00:25:53;3.90;;;1.60;;
12469;SDS011;36499;46.484;13.832;2023-07-31T00:28:20;3.30;;;1.60;;
12469;SDS011;36499;46.484;13.832;2023-07-31T00:30:47;3.70;;;1.60;;
12469;SDS011;36499;46.484;13.832;2023-07-31T00:33:15;2.27;;;1.50;;
12469;SDS011;36499;46.484;13.832;2023-07-31T00:35:42;2.20;;;1.73;;
12469;SDS011;36499;46.484;13.832;2023-07-31T00:38:09;1.83;;;1.73;;
12469;SDS011;36499;46.484;13.832;2023-07-31T00:40:36;3.83;;;1.60;;
12469;SDS011;36499;46.484;13.832;2023-07-31T00:43:03;5.57;;;1.90;;
12469;SDS011;36499;46.484;13.832;2023-07-31T00:45:31;2.10;;;1.60;;
12469;SDS011;36499;46.484;13.832;2023-07-31T00:47:59;2.23;;;1.63;;
12469;SDS011;36499;46.484;13.832;2023-07-31T00:50:27;2.07;;;1.70;;
12469;SDS011;36499;46.484;13.832;2023-07-31T00:52:55;3.73;;;1.70;;
12469;SDS011;36499;46.484;13.832;2023-07-31T00:55:22;1.80;;;1.47;;
12469;SDS011;36499;46.484;13.832;2023-07-31T00:57:50;2.13;;;1.57;;
12469;SDS011;36499;46.484;13.832;2023-07-31T01:00:20;2.60;;;1.47;;
12469;SDS011;36499;46.484;13.832;2023-07-31T01:02:47;1.90;;;1.70;;
12469;SDS011;36499;46.484;13.832;2023-07-31T01:05:16;3.90;;;1.70;;
12469;SDS011;36499;46.484;13.832;2023-07-31T01:07:52;3.17;;;1.60;;
12469;SDS011;36499;46.484;13.832;2023-07-31T01:10:30;2.40;;;1.73;;
12469;SDS011;36499;46.484;13.832;2023-07-31T01:13:15;1.63;;;1.53;;
12469;SDS011;36499;46.484;13.832;2023-07-31T01:15:44;4.40;;;1.57;;
12469;SDS011;36499;46.484;13.832;2023-07-31T01:18:11;3.70;;;1.80;;
12469;SDS011;36499;46.484;13.832;2023-07-31T01:20:38;3.60;;;1.50;;
12469;SDS011;36499;46.484;13.832;2023-07-31T01:26:14;11.20;;;1.80;;
12469;SDS011;36499;46.484;13.832;2023-07-31T01:28:50;5.57;;;1.57;;
12469;SDS011;36499;46.484;13.832;2023-07-31T01:31:26;1.93;;;1.73;;
12469;SDS011;36499;46.484;13.832;2023-07-31T01:33:57;2.10;;;1.60;;
12469;SDS011;36499;46.484;13.832;2023-07-31T01:36:27;1.70;;;1.60;;
12469;SDS011;36499;46.484;13.832;2023-07-31T01:38:57;3.90;;;1.63;;
12469;SDS011;36499;46.484;13.832;2023-07-31T01:41:26;3.97;;;1.80;;
12469;SDS011;36499;46.484;13.832;2023-07-31T01:43:54;2.27;;;1.67;;
12469;SDS011;36499;46.484;13.832;2023-07-31T01:46:21;2.00;;;1.60;;
12469;SDS011;36499;46.484;13.832;2023-07-31T01:48:48;1.90;;;1.57;;
12469;SDS011;36499;46.484;13.832;2023-07-31T01:51:15;2.27;;;1.50;;
12469;SDS011;36499;46.484;13.832;2023-07-31T01:53:42;2.30;;;1.80;;
12469;SDS011;36499;46.484;13.832;2023-07-31T01:56:09;2.60;;;1.60;;
12469;SDS011;36499;46.484;13.832;2023-07-31T01:58:37;2.07;;;1.67;;
12469;SDS011;36499;46.484;13.832;2023-07-31T02:01:04;4.57;;;1.60;;
12469;SDS011;36499;46.484;13.832;2023-07-31T02:03:30;2.87;;;1.80;;
12469;SDS011;36499;46.484;13.832;2023-07-31T02:05:57;1.70;;;1.60;;
12469;SDS011;36499;46.484;13.832;2023-07-31T02:08:24;2.40;;;1.93;;
12469;SDS011;36499;46.484;13.832;2023-07-31T02:10:51;1.80;;;1.60;;
12469;SDS011;36499;46.484;13.832;2023-07-31T02:13:18;2.33;;;1.50;;
12469;SDS011;36499;46.484;13.832;2023-07-31T02:15:47;2.33;;;1.63;;
12469;SDS011;36499;46.484;13.832;2023-07-31T02:18:15;2.13;;;1.60;;
12469;SDS011;36499;46.484;13.832;2023-07-31T02:20:42;1.70;;;1.60;;
12469;SDS011;36499;46.484;13.832;2023-07-31T02:23:11;2.57;;;1.60;;
12469;SDS011;36499;46.484;13.832;2023-07-31T02:25:38;1.70;;;1.60;;
12469;SDS011;36499;46.484;13.832;2023-07-31T02:28:05;1.90;;;1.50;;
12469;SDS011;36499;46.484;13.832;2023-07-31T02:30:32;2.33;;;1.53;;
12469;SDS011;36499;46.484;13.832;2023-07-31T02:33:00;2.23;;;1.67;;
12469;SDS011;36499;46.484;13.832;2023-07-31T02:35:26;2.33;;;1.63;;
12469;SDS011;36499;46.484;13.832;2023-07-31T02:37:53;3.70;;;1.30;;
12469;SDS011;36499;46.484;13.832;2023-07-31T02:40:20;2.07;;;1.60;;
12469;SDS011;36499;46.484;13.832;2023-07-31T02:42:48;3.53;;;1.73;;
12469;SDS011;36499;46.484;13.832;2023-07-31T02:45:15;3.50;;;1.50;;
12469;SDS011;36499;46.484;13.832;2023-07-31T02:47:42;1.60;;;1.40;;
12469;SDS011;36499;46.484;13.832;2023-07-31T02:50:11;4.07;;;1.77;;
12469;SDS011;36499;46.484;13.832;2023-07-31T02:52:38;2.97;;;1.70;;
12469;SDS011;36499;46.484;13.832;2023-07-31T02:55:05;2.53;;;1.50;;
12469;SDS011;36499;46.484;13.832;2023-07-31T02:57:33;3.80;;;1.47;;
12469;SDS011;36499;46.484;13.832;2023-07-31T03:00:00;1.77;;;1.67;;
12469;SDS011;36499;46.484;13.832;2023-07-31T03:02:30;1.87;;;1.63;;
12469;SDS011;36499;46.484;13.832;2023-07-31T03:04:57;2.47;;;1.53;;
12469;SDS011;36499;46.484;13.832;2023-07-31T03:07:26;3.13;;;1.70;;
12469;SDS011;36499;46.484;13.832;2023-07-31T03:09:53;2.80;;;1.40;;
12469;SDS011;36499;46.484;13.832;2023-07-31T03:12:20;6.00;;;1.70;;
12469;SDS011;36499;46.484;13.832;2023-07-31T03:14:48;6.57;;;1.80;;
12469;SDS011;36499;46.484;13.832;2023-07-31T03:17:15;3.10;;;1.70;;
12469;SDS011;36499;46.484;13.832;2023-07-31T03:19:42;3.63;;;1.63;;
12469;SDS011;36499;46.484;13.832;2023-07-31T03:22:09;3.00;;;1.70;;
12469;SDS011;36499;46.484;13.832;2023-07-31T03:24:37;4.93;;;1.40;;
12469;SDS011;36499;46.484;13.832;2023-07-31T03:27:04;3.00;;;1.43;;
12469;SDS011;36499;46.484;13.832;2023-07-31T03:29:32;4.27;;;1.47;;
12469;SDS011;36499;46.484;13.832;2023-07-31T03:31:59;2.83;;;1.60;;
12469;SDS011;36499;46.484;13.832;2023-07-31T03:34:26;4.67;;;1.73;;
12469;SDS011;36499;46.484;13.832;2023-07-31T03:36:53;2.10;;;1.90;;
12469;SDS011;36499;46.484;13.832;2023-07-31T03:39:20;3.13;;;1.77;;
12469;SDS011;36499;46.484;13.832;2023-07-31T03:41:48;1.70;;;1.60;;
12469;SDS011;36499;46.484;13.832;2023-07-31T03:44:15;2.00;;;1.70;;
12469;SDS011;36499;46.484;13.832;2023-07-31T03:46:43;3.17;;;1.60;;
12469;SDS011;36499;46.484;13.832;2023-07-31T03:49:10;2.63;;;1.50;;
12469;SDS011;36499;46.484;13.832;2023-07-31T03:51:37;4.60;;;1.50;;
12469;SDS011;36499;46.484;13.832;2023-07-31T03:54:04;1.73;;;1.30;;
12469;SDS011;36499;46.484;13.832;2023-07-31T03:56:32;4.60;;;1.47;;
12469;SDS011;36499;46.484;13.832;2023-07-31T03:59:01;1.53;;;1.43;;
12469;SDS011;36499;46.484;13.832;2023-07-31T04:01:28;2.00;;;1.70;;
12469;SDS011;36499;46.484;13.832;2023-07-31T04:03:55;3.50;;;1.90;;
12469;SDS011;36499;46.484;13.832;2023-07-31T04:06:22;3.90;;;1.87;;
12469;SDS011;36499;46.484;13.832;2023-07-31T04:08:49;1.80;;;1.70;;
12469;SDS011;36499;46.484;13.832;2023-07-31T04:11:16;2.17;;;1.87;;
12469;SDS011;36499;46.484;13.832;2023-07-31T04:13:43;3.77;;;1.90;;
12469;SDS011;36499;46.484;13.832;2023-07-31T04:16:11;2.60;;;2.20;;
12469;SDS011;36499;46.484;13.832;2023-07-31T04:18:38;1.87;;;1.70;;
12469;SDS011;36499;46.484;13.832;2023-07-31T04:21:05;6.50;;;2.00;;
12469;SDS011;36499;46.484;13.832;2023-07-31T04:23:32;2.50;;;1.80;;
12469;SDS011;36499;46.484;13.832;2023-07-31T04:25:59;2.00;;;1.60;;
12469;SDS011;36499;46.484;13.832;2023-07-31T04:28:27;2.40;;;1.73;;
12469;SDS011;36499;46.484;13.832;2023-07-31T04:30:56;2.33;;;1.60;;
12469;SDS011;36499;46.484;13.832;2023-07-31T04:33:25;4.60;;;1.80;;
12469;SDS011;36499;46.484;13.832;2023-07-31T04:35:52;6.10;;;1.90;;
12469;SDS011;36499;46.484;13.832;2023-07-31T04:38:19;2.50;;;1.87;;
12469;SDS011;36499;46.484;13.832;2023-07-31T04:40:48;5.03;;;1.83;;
12469;SDS011;36499;46.484;13.832;2023-07-31T04:43:15;3.33;;;1.90;;
12469;SDS011;36499;46.484;13.832;2023-07-31T04:45:44;5.53;;;1.83;;
12469;SDS011;36499;46.484;13.832;2023-07-31T04:48:13;2.03;;;1.87;;
12469;SDS011;36499;46.484;13.832;2023-07-31T04:50:41;1.77;;;1.67;;
12469;SDS011;36499;46.484;13.832;2023-07-31T04:53:09;2.10;;;1.90;;
12469;SDS011;36499;46.484;13.832;2023-07-31T04:55:36;3.37;;;1.63;;
12469;SDS011;36499;46.484;13.832;2023-07-31T04:58:03;6.13;;;1.77;;
12469;SDS011;36499;46.484;13.832;2023-07-31T05:00:31;2.67;;;1.70;;
12469;SDS011;36499;46.484;13.832;2023-07-31T05:02:58;3.60;;;1.80;;
12469;SDS011;36499;46.484;13.832;2023-07-31T05:05:25;1.60;;;1.43;;
12469;SDS011;36499;46.484;13.832;2023-07-31T05:07:53;2.53;;;1.97;;
12469;SDS011;36499;46.484;13.832;2023-07-31T05:10:20;2.07;;;1.50;;
12469;SDS011;36499;46.484;13.832;2023-07-31T05:12:47;5.00;;;1.70;;
12469;SDS011;36499;46.484;13.832;2023-07-31T05:15:15;2.40;;;1.80;;
12469;SDS011;36499;46.484;13.832;2023-07-31T05:17:42;3.37;;;1.53;;
12469;SDS011;36499;46.484;13.832;2023-07-31T05:20:09;4.07;;;1.63;;
12469;SDS011;36499;46.484;13.832;2023-07-31T05:22:37;1.93;;;1.60;;
12469;SDS011;36499;46.484;13.832;2023-07-31T05:25:06;3.30;;;1.53;;
12469;SDS011;36499;46.484;13.832;2023-07-31T05:27:34;4.20;;;1.60;;
12469;SDS011;36499;46.484;13.832;2023-07-31T05:30:01;1.70;;;1.60;;
12469;SDS011;36499;46.484;13.832;2023-07-31T05:32:29;2.43;;;1.70;;
12469;SDS011;36499;46.484;13.832;2023-07-31T05:34:56;3.57;;;1.63;;
12469;SDS011;36499;46.484;13.832;2023-07-31T05:37:24;11.77;;;2.10;;
12469;SDS011;36499;46.484;13.832;2023-07-31T05:39:51;4.67;;;2.03;;
12469;SDS011;36499;46.484;13.832;2023-07-31T05:42:19;2.23;;;1.60;;
12469;SDS011;36499;46.484;13.832;2023-07-31T05:44:46;2.30;;;1.77;;
12469;SDS011;36499;46.484;13.832;2023-07-31T05:47:13;2.13;;;1.70;;
12469;SDS011;36499;46.484;13.832;2023-07-31T05:49:40;3.80;;;1.67;;
12469;SDS011;36499;46.484;13.832;2023-07-31T05:52:07;3.47;;;1.70;;
12469;SDS011;36499;46.484;13.832;2023-07-31T05:54:34;2.17;;;1.57;;
12469;SDS011;36499;46.484;13.832;2023-07-31T05:57:01;2.77;;;1.80;;
12469;SDS011;36499;46.484;13.832;2023-07-31T05:59:30;3.73;;;1.90;;
12469;SDS011;36499;46.484;13.832;2023-07-31T06:01:58;1.87;;;1.60;;
12469;SDS011;36499;46.484;13.832;2023-07-31T06:04:25;1.87;;;1.77;;
12469;SDS011;36499;46.484;13.832;2023-07-31T06:06:52;4.03;;;1.80;;
12469;SDS011;36499;46.484;13.832;2023-07-31T06:09:19;1.60;;;1.50;;
12469;SDS011;36499;46.484;13.832;2023-07-31T06:11:46;1.73;;;1.63;;
12469;SDS011;36499;46.484;13.832;2023-07-31T06:14:13;2.67;;;2.00;;
12469;SDS011;36499;46.484;13.832;2023-07-31T06:16:42;2.00;;;1.50;;
12469;SDS011;36499;46.484;13.832;2023-07-31T06:19:10;2.13;;;1.50;;
12469;SDS011;36499;46.484;13.832;2023-07-31T06:21:37;2.63;;;1.77;;
12469;SDS011;36499;46.484;13.832;2023-07-31T06:24:07;2.13;;;1.70;;
12469;SDS011;36499;46.484;13.832;2023-07-31T06:26:34;2.10;;;1.63;;
12469;SDS011;36499;46.484;13.832;2023-07-31T06:29:01;1.60;;;1.40;;
12469;SDS011;36499;46.484;13.832;2023-07-31T06:31:28;2.30;;;1.70;;
12469;SDS011;36499;46.484;13.832;2023-07-31T06:33:57;2.00;;;1.80;;
12469;SDS011;36499;46.484;13.832;2023-07-31T06:36:24;2.53;;;1.80;;
12469;SDS011;36499;46.484;13.832;2023-07-31T06:38:51;4.33;;;1.70;;
12469;SDS011;36499;46.484;13.832;2023-07-31T06:41:18;1.90;;;1.80;;
12469;SDS011;36499;46.484;13.832;2023-07-31T06:43:45;3.43;;;1.60;;
12469;SDS011;36499;46.484;13.832;2023-07-31T06:46:12;1.60;;;1.50;;
12469;SDS011;36499;46.484;13.832;2023-07-31T06:48:39;2.27;;;1.67;;
12469;SDS011;36499;46.484;13.832;2023-07-31T06:51:08;2.20;;;1.70;;
12469;SDS011;36499;46.484;13.832;2023-07-31T06:53:35;1.97;;;1.50;;
12469;SDS011;36499;46.484;13.832;2023-07-31T06:56:02;1.93;;;1.60;;
12469;SDS011;36499;46.484;13.832;2023-07-31T06:58:30;2.97;;;1.80;;
12469;SDS011;36499;46.484;13.832;2023-07-31T07:00:57;3.57;;;1.60;;
12469;SDS011;36499;46.484;13.832;2023-07-31T07:03:24;2.17;;;1.97;;
12469;SDS011;36499;46.484;13.832;2023-07-31T07:05:51;2.87;;;1.87;;
12469;SDS011;36499;46.484;13.832;2023-07-31T07:08:19;1.80;;;1.70;;
12469;SDS011;36499;46.484;13.832;2023-07-31T07:10:46;1.90;;;1.70;;
12469;SDS011;36499;46.484;13.832;2023-07-31T07:13:13;2.00;;;1.80;;
12469;SDS011;36499;46.484;13.832;2023-07-31T07:15:40;2.90;;;1.80;;
12469;SDS011;36499;46.484;13.832;2023-07-31T07:18:07;4.87;;;1.80;;
12469;SDS011;36499;46.484;13.832;2023-07-31T07:20:35;1.90;;;1.43;;
12469;SDS011;36499;46.484;13.832;2023-07-31T07:23:02;1.93;;;1.60;;
12469;SDS011;36499;46.484;13.832;2023-07-31T07:25:31;2.00;;;1.80;;
12469;SDS011;36499;46.484;13.832;2023-07-31T07:27:58;3.90;;;1.67;;
12469;SDS011;36499;46.484;13.832;2023-07-31T07:30:25;2.13;;;1.70;;
12469;SDS011;36499;46.484;13.832;2023-07-31T07:32:52;1.90;;;1.70;;
12469;SDS011;36499;46.484;13.832;2023-07-31T07:35:19;2.10;;;1.70;;
12469;SDS011;36499;46.484;13.832;2023-07-31T07:37:48;1.57;;;1.40;;
12469;SDS011;36499;46.484;13.832;2023-07-31T07:40:16;1.77;;;1.63;;
12469;SDS011;36499;46.484;13.832;2023-07-31T07:42:44;1.70;;;1.60;;
12469;SDS011;36499;46.484;13.832;2023-07-31T07:45:11;1.87;;;1.60;;
12469;SDS011;36499;46.484;13.832;2023-07-31T07:47:40;1.87;;;1.67;;
12469;SDS011;36499;46.484;13.832;2023-07-31T07:50:08;2.00;;;1.80;;
12469;SDS011;36499;46.484;13.832;2023-07-31T07:52:35;2.03;;;1.60;;
12469;SDS011;36499;46.484;13.832;2023-07-31T07:55:03;2.70;;;1.73;;
12469;SDS011;36499;46.484;13.832;2023-07-31T07:57:30;2.40;;;1.80;;
12469;SDS011;36499;46.484;13.832;2023-07-31T07:59:59;2.17;;;1.80;;
12469;SDS011;36499;46.484;13.832;2023-07-31T08:02:26;1.77;;;1.60;;
12469;SDS011;36499;46.484;13.832;2023-07-31T08:04:53;2.00;;;1.63;;
12469;SDS011;36499;46.484;13.832;2023-07-31T08:07:20;1.90;;;1.63;;
12469;SDS011;36499;46.484;13.832;2023-07-31T08:09:47;2.97;;;1.80;;
12469;SDS011;36499;46.484;13.832;2023-07-31T08:12:14;2.63;;;1.93;;
12469;SDS011;36499;46.484;13.832;2023-07-31T08:14:41;2.97;;;1.60;;
12469;SDS011;36499;46.484;13.832;2023-07-31T08:17:10;1.87;;;1.77;;
12469;SDS011;36499;46.484;13.832;2023-07-31T08:19:37;1.70;;;1.60;;
12469;SDS011;36499;46.484;13.832;2023-07-31T08:22:04;2.40;;;1.70;;
12469;SDS011;36499;46.484;13.832;2023-07-31T08:24:31;2.67;;;1.80;;
12469;SDS011;36499;46.484;13.832;2023-07-31T08:26:58;1.43;;;1.33;;
12469;SDS011;36499;46.484;13.832;2023-07-31T08:29:25;2.60;;;1.80;;
12469;SDS011;36499;46.484;13.832;2023-07-31T08:31:52;2.97;;;1.80;;
12469;SDS011;36499;46.484;13.832;2023-07-31T08:34:21;2.33;;;1.80;;
12469;SDS011;36499;46.484;13.832;2023-07-31T08:36:48;2.47;;;1.90;;
12469;SDS011;36499;46.484;13.832;2023-07-31T08:39:15;2.23;;;1.60;;
12469;SDS011;36499;46.484;13.832;2023-07-31T08:41:42;2.10;;;1.90;;
12469;SDS011;36499;46.484;13.832;2023-07-31T08:44:09;2.80;;;2.00;;
12469;SDS011;36499;46.484;13.832;2023-07-31T08:46:40;2.20;;;1.90;;
12469;SDS011;36499;46.484;13.832;2023-07-31T08:49:08;2.10;;;1.90;;
12469;SDS011;36499;46.484;13.832;2023-07-31T08:51:38;2.00;;;1.77;;
12469;SDS011;36499;46.484;13.832;2023-07-31T08:54:07;1.70;;;1.60;;
12469;SDS011;36499;46.484;13.832;2023-07-31T08:56:34;2.17;;;1.97;;
12469;SDS011;36499;46.484;13.832;2023-07-31T08:59:03;1.90;;;1.80;;
12469;SDS011;36499;46.484;13.832;2023-07-31T09:01:31;2.17;;;1.67;;
12469;SDS011;36499;46.484;13.832;2023-07-31T09:04:09;1.90;;;1.80;;
12469;SDS011;36499;46.484;13.832;2023-07-31T09:06:41;2.73;;;1.80;;
12469;SDS011;36499;46.484;13.832;2023-07-31T09:09:10;2.43;;;1.90;;
12469;SDS011;36499;46.484;13.832;2023-07-31T09:11:38;2.00;;;1.80;;
12469;SDS011;36499;46.484;13.832;2023-07-31T09:14:08;3.87;;;1.90;;
12469;SDS011;36499;46.484;13.832;2023-07-31T09:16:37;1.90;;;1.70;;
12469;SDS011;36499;46.484;13.832;2023-07-31T09:19:24;2.57;;;1.87;;
12469;SDS011;36499;46.484;13.832;2023-07-31T09:21:54;1.70;;;1.60;;
12469;SDS011;36499;46.484;13.832;2023-07-31T09:24:25;2.07;;;1.87;;
12469;SDS011;36499;46.484;13.832;2023-07-31T09:26:53;2.13;;;1.93;;
12469;SDS011;36499;46.484;13.832;2023-07-31T09:29:22;3.50;;;2.00;;
12469;SDS011;36499;46.484;13.832;2023-07-31T09:31:50;1.97;;;1.80;;
12469;SDS011;36499;46.484;13.832;2023-07-31T09:34:17;2.20;;;1.83;;
12469;SDS011;36499;46.484;13.832;2023-07-31T09:36:45;3.80;;;1.90;;
12469;SDS011;36499;46.484;13.832;2023-07-31T09:39:15;3.70;;;2.60;;
12469;SDS011;36499;46.484;13.832;2023-07-31T09:41:47;2.00;;;1.77;;
12469;SDS011;36499;46.484;13.832;2023-07-31T09:44:21;2.20;;;1.90;;
12469;SDS011;36499;46.484;13.832;2023-07-31T09:47:04;2.40;;;2.20;;
12469;SDS011;36499;46.484;13.832;2023-07-31T09:49:31;3.20;;;2.00;;
12469;SDS011;36499;46.484;13.832;2023-07-31T09:51:58;2.37;;;1.83;;
12469;SDS011;36499;46.484;13.832;2023-07-31T09:54:28;1.70;;;1.60;;
12469;SDS011;36499;46.484;13.832;2023-07-31T09:56:55;2.10;;;2.00;;
12469;SDS011;36499;46.484;13.832;2023-07-31T09:59:26;3.93;;;1.97;;
12469;SDS011;36499;46.484;13.832;2023-07-31T10:01:53;1.90;;;1.60;;
12469;SDS011;36499;46.484;13.832;2023-07-31T10:04:23;2.40;;;2.20;;
12469;SDS011;36499;46.484;13.832;2023-07-31T10:06:53;2.50;;;2.20;;
12469;SDS011;36499;46.484;13.832;2023-07-31T10:09:21;3.23;;;1.60;;
12469;SDS011;36499;46.484;13.832;2023-07-31T10:11:59;2.30;;;2.10;;
12469;SDS011;36499;46.484;13.832;2023-07-31T10:14:31;2.10;;;1.90;;
12469;SDS011;36499;46.484;13.832;2023-07-31T10:16:59;3.13;;;1.90;;
12469;SDS011;36499;46.484;13.832;2023-07-31T10:19:28;2.97;;;1.93;;
12469;SDS011;36499;46.484;13.832;2023-07-31T10:21:57;2.53;;;2.07;;
12469;SDS011;36499;46.484;13.832;2023-07-31T10:24:27;1.80;;;1.70;;
12469;SDS011;36499;46.484;13.832;2023-07-31T10:26:57;2.53;;;2.00;;
12469;SDS011;36499;46.484;13.832;2023-07-31T10:29:27;2.77;;;2.20;;
12469;SDS011;36499;46.484;13.832;2023-07-31T10:31:56;3.53;;;2.20;;
12469;SDS011;36499;46.484;13.832;2023-07-31T10:34:25;3.80;;;2.50;;
12469;SDS011;36499;46.484;13.832;2023-07-31T10:39:59;3.57;;;2.20;;
12469;SDS011;36499;46.484;13.832;2023-07-31T10:42:33;2.87;;;2.17;;
12469;SDS011;36499;46.484;13.832;2023-07-31T10:45:03;3.80;;;2.30;;
12469;SDS011;36499;46.484;13.832;2023-07-31T10:47:36;3.93;;;2.20;;
12469;SDS011;36499;46.484;13.832;2023-07-31T10:50:11;2.53;;;2.20;;
12469;SDS011;36499;46.484;13.832;2023-07-31T10:52:47;2.60;;;2.00;;
12469;SDS011;36499;46.484;13.832;2023-07-31T10:59:01;5.03;;;2.50;;
12469;SDS011;36499;46.484;13.832;2023-07-31T11:04:21;2.30;;;2.10;;
12469;SDS011;36499;46.484;13.832;2023-07-31T11:06:59;2.83;;;2.47;;
12469;SDS011;36499;46.484;13.832;2023-07-31T11:09:30;2.47;;;2.13;;
12469;SDS011;36499;46.484;13.832;2023-07-31T11:12:06;2.83;;;2.33;;
12469;SDS011;36499;46.484;13.832;2023-07-31T11:14:36;2.27;;;2.07;;
12469;SDS011;36499;46.484;13.832;2023-07-31T11:17:05;2.27;;;2.07;;
12469;SDS011;36499;46.484;13.832;2023-07-31T11:19:33;2.83;;;2.17;;
12469;SDS011;36499;46.484;13.832;2023-07-31T11:22:00;2.10;;;1.90;;
12469;SDS011;36499;46.484;13.832;2023-07-31T11:24:27;2.30;;;2.10;;
12469;SDS011;36499;46.484;13.832;2023-07-31T11:26:54;2.57;;;2.33;;
12469;SDS011;36499;46.484;13.832;2023-07-31T11:29:21;2.47;;;2.27;;
12469;SDS011;36499;46.484;13.832;2023-07-31T11:31:55;4.03;;;2.53;;
12469;SDS011;36499;46.484;13.832;2023-07-31T11:34:22;2.20;;;2.00;;
12469;SDS011;36499;46.484;13.832;2023-07-31T11:36:53;2.50;;;2.27;;
12469;SDS011;36499;46.484;13.832;2023-07-31T11:39:21;2.47;;;2.20;;
12469;SDS011;36499;46.484;13.832;2023-07-31T11:41:48;5.60;;;2.10;;
12469;SDS011;36499;46.484;13.832;2023-07-31T11:44:15;2.47;;;2.27;;
12469;SDS011;36499;46.484;13.832;2023-07-31T11:46:42;3.50;;;2.10;;
12469;SDS011;36499;46.484;13.832;2023-07-31T11:49:11;3.20;;;2.20;;
12469;SDS011;36499;46.484;13.832;2023-07-31T11:51:38;3.37;;;2.30;;
12469;SDS011;36499;46.484;13.832;2023-07-31T11:54:05;2.87;;;2.13;;
12469;SDS011;36499;46.484;13.832;2023-07-31T11:56:33;2.83;;;2.20;;
12469;SDS011;36499;46.484;13.832;2023-07-31T11:59:00;2.97;;;2.23;;
12469;SDS011;36499;46.484;13.832;2023-07-31T12:01:30;3.13;;;2.33;;
12469;SDS011;36499;46.484;13.832;2023-07-31T12:03:58;2.00;;;1.90;;
12469;SDS011;36499;46.484;13.832;2023-07-31T12:06:33;2.50;;;2.30;;
12469;SDS011;36499;46.484;13.832;2023-07-31T12:09:02;3.93;;;2.13;;
12469;SDS011;36499;46.484;13.832;2023-07-31T12:11:30;3.70;;;2.27;;
12469;SDS011;36499;46.484;13.832;2023-07-31T12:13:57;3.07;;;2.37;;
12469;SDS011;36499;46.484;13.832;2023-07-31T12:16:26;2.40;;;2.20;;
12469;SDS011;36499;46.484;13.832;2023-07-31T12:18:54;2.63;;;2.43;;
12469;SDS011;36499;46.484;13.832;2023-07-31T12:21:21;6.13;;;2.37;;
12469;SDS011;36499;46.484;13.832;2023-07-31T12:23:51;2.63;;;2.10;;
12469;SDS011;36499;46.484;13.832;2023-07-31T12:26:19;2.60;;;2.20;;
12469;SDS011;36499;46.484;13.832;2023-07-31T12:28:48;2.87;;;2.20;;
12469;SDS011;36499;46.484;13.832;2023-07-31T12:31:17;2.57;;;2.00;;
12469;SDS011;36499;46.484;13.832;2023-07-31T12:33:47;2.43;;;2.23;;
12469;SDS011;36499;46.484;13.832;2023-07-31T12:36:16;3.73;;;2.43;;
12469;SDS011;36499;46.484;13.832;2023-07-31T12:38:47;2.27;;;2.00;;
12469;SDS011;36499;46.484;13.832;2023-07-31T12:41:16;2.43;;;2.00;;
12469;SDS011;36499;46.484;13.832;2023-07-31T12:43:44;2.63;;;2.17;;
12469;SDS011;36499;46.484;13.832;2023-07-31T12:46:12;5.37;;;2.27;;
12469;SDS011;36499;46.484;13.832;2023-07-31T12:48:39;4.17;;;2.20;;
12469;SDS011;36499;46.484;13.832;2023-07-31T12:51:07;3.10;;;2.33;;
12469;SDS011;36499;46.484;13.832;2023-07-31T12:53:34;3.27;;;2.40;;
12469;SDS011;36499;46.484;13.832;2023-07-31T12:56:01;3.30;;;2.20;;
12469;SDS011;36499;46.484;13.832;2023-07-31T12:58:30;3.03;;;2.30;;
12469;SDS011;36499;46.484;13.832;2023-07-31T13:00:57;4.77;;;3.27;;
12469;SDS011;36499;46.484;13.832;2023-07-31T13:03:24;3.97;;;2.40;;
12469;SDS011;36499;46.484;13.832;2023-07-31T13:05:51;4.23;;;2.27;;
12469;SDS011;36499;46.484;13.832;2023-07-31T13:08:19;4.23;;;2.80;;
12469;SDS011;36499;46.484;13.832;2023-07-31T13:10:46;3.60;;;2.50;;
12469;SDS011;36499;46.484;13.832;2023-07-31T13:13:13;2.50;;;2.30;;
12469;SDS011;36499;46.484;13.832;2023-07-31T13:15:41;3.73;;;2.63;;
12469;SDS011;36499;46.484;13.832;2023-07-31T13:18:10;2.60;;;2.40;;
12469;SDS011;36499;46.484;13.832;2023-07-31T13:20:37;3.90;;;2.17;;
12469;SDS011;36499;46.484;13.832;2023-07-31T13:23:04;2.53;;;2.00;;
12469;SDS011;36499;46.484;13.832;2023-07-31T13:25:31;3.60;;;2.57;;
12469;SDS011;36499;46.484;13.832;2023-07-31T13:27:58;4.03;;;2.43;;
12469;SDS011;36499;46.484;13.832;2023-07-31T13:30:25;2.40;;;2.20;;
12469;SDS011;36499;46.484;13.832;2023-07-31T13:32:54;2.80;;;2.60;;
12469;SDS011;36499;46.484;13.832;2023-07-31T13:35:21;2.63;;;2.17;;
12469;SDS011;36499;46.484;13.832;2023-07-31T13:37:48;3.07;;;2.10;;
12469;SDS011;36499;46.484;13.832;2023-07-31T13:40:15;3.40;;;2.00;;
12469;SDS011;36499;46.484;13.832;2023-07-31T13:42:42;2.87;;;2.40;;
12469;SDS011;36499;46.484;13.832;2023-07-31T13:45:09;2.03;;;1.90;;
12469;SDS011;36499;46.484;13.832;2023-07-31T13:47:36;4.03;;;2.23;;
12469;SDS011;36499;46.484;13.832;2023-07-31T13:50:05;3.27;;;2.20;;
12469;SDS011;36499;46.484;13.832;2023-07-31T13:52:32;2.93;;;2.30;;
12469;SDS011;36499;46.484;13.832;2023-07-31T13:55:00;2.53;;;2.30;;
12469;SDS011;36499;46.484;13.832;2023-07-31T13:57:27;2.47;;;2.27;;
12469;SDS011;36499;46.484;13.832;2023-07-31T13:59:54;5.97;;;2.67;;
12469;SDS011;36499;46.484;13.832;2023-07-31T14:02:21;4.13;;;2.30;;
12469;SDS011;36499;46.484;13.832;2023-07-31T14:04:48;2.93;;;2.10;;
12469;SDS011;36499;46.484;13.832;2023-07-31T14:07:16;2.93;;;2.10;;
12469;SDS011;36499;46.484;13.832;2023-07-31T14:09:44;2.70;;;2.30;;
12469;SDS011;36499;46.484;13.832;2023-07-31T14:12:11;2.23;;;1.90;;
12469;SDS011;36499;46.484;13.832;2023-07-31T14:14:38;4.87;;;2.57;;
12469;SDS011;36499;46.484;13.832;2023-07-31T14:17:05;2.30;;;2.10;;
12469;SDS011;36499;46.484;13.832;2023-07-31T14:19:32;5.57;;;2.07;;
12469;SDS011;36499;46.484;13.832;2023-07-31T14:21:59;2.50;;;2.30;;
12469;SDS011;36499;46.484;13.832;2023-07-31T14:24:27;2.40;;;2.20;;
12469;SDS011;36499;46.484;13.832;2023-07-31T14:26:54;2.60;;;2.00;;
12469;SDS011;36499;46.484;13.832;2023-07-31T14:29:21;3.13;;;2.80;;
12469;SDS011;36499;46.484;13.832;2023-07-31T14:31:49;2.67;;;2.43;;
12469;SDS011;36499;46.484;13.832;2023-07-31T14:34:16;3.00;;;2.10;;
12469;SDS011;36499;46.484;13.832;2023-07-31T14:36:43;4.00;;;2.10;;
12469;SDS011;36499;46.484;13.832;2023-07-31T14:39:11;2.10;;;2.00;;
12469;SDS011;36499;46.484;13.832;2023-07-31T14:41:39;2.73;;;2.20;;
12469;SDS011;36499;46.484;13.832;2023-07-31T14:44:06;2.63;;;2.27;;
12469;SDS011;36499;46.484;13.832;2023-07-31T14:46:33;3.87;;;2.40;;
12469;SDS011;36499;46.484;13.832;2023-07-31T14:49:00;3.60;;;2.40;;
12469;SDS011;36499;46.484;13.832;2023-07-31T14:51:27;2.23;;;2.03;;